Time;durP1;ratioP1;P1;durP2;ratioP2;P2;SDS_P1;SDS_P2;PMS_P1;PMS_P2;Temp;Humidity;BMP_temperature;BMP_pressure;BME280_temperature;BME280_humidity;BME280_pressure;Samples;Min_cycle;Max_cycle;Signal;HPM_P1;HPM_P2
2021/08/17 00:00:41;;;;;;;2.35;1.50;;;;;;;;;;5053743;28;20033;-77
2021/08/17 00:03:08;;;;;;;1.58;1.20;;;;;;;;;;5074469;28;20032;-77
2021/08/17 00:05:34;;;;;;;1.92;1.13;;;;;;;;;;5075158;28;20020;-77
2021/08/17 00:08:02;;;;;;;1.70;1.30;;;;;;;;;;5075342;28;20402;-77
2021/08/17 00:10:28;;;;;;;2.15;1.33;;;;;;;;;;5074788;28;20060;-77
2021/08/17 00:12:54;;;;;;;1.83;1.17;;;;;;;;;;5075053;28;20029;-77
2021/08/17 00:15:20;;;;;;;1.52;1.25;;;;;;;;;;5074831;28;20059;-77
2021/08/17 00:17:46;;;;;;;2.10;1.35;;;;;;;;;;5057206;28;20059;-77
2021/08/17 00:20:13;;;;;;;2.25;1.25;;;;;;;;;;5074797;28;20017;-77
2021/08/17 00:22:40;;;;;;;1.48;1.17;;;;;;;;;;5075089;28;20036;-77
2021/08/17 00:25:07;;;;;;;1.45;1.13;;;;;;;;;;5074774;28;20032;-77
2021/08/17 00:27:33;;;;;;;2.05;1.15;;;;;;;;;;5075096;28;20093;-77
2021/08/17 00:29:59;;;;;;;2.30;1.20;;;;;;;;;;5057132;28;20111;-77
2021/08/17 00:32:25;;;;;;;1.88;1.23;;;;;;;;;;5074453;28;20155;-77
2021/08/17 00:34:51;;;;;;;1.95;1.33;;;;;;;;;;5074854;28;20165;-77
2021/08/17 00:37:21;;;;;;;1.63;1.10;;;;;;;;;;5074675;28;20103;-77
2021/08/17 00:39:47;;;;;;;2.05;1.20;;;;;;;;;;5074598;28;20032;-77
2021/08/17 00:42:13;;;;;;;1.70;1.20;;;;;;;;;;5074214;28;20036;-77
2021/08/17 00:44:39;;;;;;;1.60;1.30;;;;;;;;;;5074353;28;20036;-77
2021/08/17 00:47:05;;;;;;;3.15;1.13;;;;;;;;;;5074388;28;20036;-77
2021/08/17 00:49:32;;;;;;;1.85;1.20;;;;;;;;;;5074527;28;20418;-77
2021/08/17 00:52:01;;;;;;;2.13;1.50;;;;;;;;;;5074143;28;20095;-77
2021/08/17 00:54:28;;;;;;;2.03;1.45;;;;;;;;;;5074266;28;20483;-77
2021/08/17 00:56:57;;;;;;;1.77;1.30;;;;;;;;;;5074502;28;20016;-77
2021/08/17 00:59:23;;;;;;;1.98;1.00;;;;;;;;;;5056204;28;20036;-77
2021/08/17 01:01:50;;;;;;;1.27;0.90;;;;;;;;;;5074379;28;20115;-74
2021/08/17 01:04:16;;;;;;;1.15;1.02;;;;;;;;;;5056162;28;20036;-75
2021/08/17 01:06:42;;;;;;;2.65;1.17;;;;;;;;;;5074101;28;20070;-74
2021/08/17 01:09:09;;;;;;;1.98;1.30;;;;;;;;;;5074072;28;20055;-75
2021/08/17 01:11:36;;;;;;;1.67;1.25;;;;;;;;;;5073717;28;20029;-75
2021/08/17 01:14:02;;;;;;;2.42;1.27;;;;;;;;;;5073939;28;20055;-75
2021/08/17 01:16:28;;;;;;;1.67;1.15;;;;;;;;;;5074256;28;20021;-75
2021/08/17 01:18:54;;;;;;;2.03;1.05;;;;;;;;;;5073873;28;20021;-75
2021/08/17 01:21:20;;;;;;;1.30;1.00;;;;;;;;;;5073417;28;20016;-74
2021/08/17 01:23:46;;;;;;;1.20;0.90;;;;;;;;;;5073920;28;20028;-74
2021/08/17 01:26:12;;;;;;;1.98;1.08;;;;;;;;;;5073507;28;20039;-74
2021/08/17 01:28:38;;;;;;;1.33;1.00;;;;;;;;;;5073629;28;20035;-75
2021/08/17 01:31:08;;;;;;;1.90;1.40;;;;;;;;;;5072947;28;20021;-75
2021/08/17 01:33:35;;;;;;;1.10;1.00;;;;;;;;;;5055669;28;20123;-75
2021/08/17 01:36:01;;;;;;;1.63;1.00;;;;;;;;;;5073422;28;20024;-75
2021/08/17 01:38:28;;;;;;;1.27;1.00;;;;;;;;;;5073712;28;20048;-75
2021/08/17 01:40:54;;;;;;;1.40;0.80;;;;;;;;;;5073185;28;20025;-75
2021/08/17 01:43:20;;;;;;;1.48;1.20;;;;;;;;;;5073712;28;20480;-75
2021/08/17 01:45:59;;;;;;;1.25;1.05;;;;;;;;;;5073582;28;20025;-75
2021/08/17 01:48:27;;;;;;;1.85;1.20;;;;;;;;;;5073042;28;20044;-74
2021/08/17 01:50:53;;;;;;;1.33;0.93;;;;;;;;;;5073039;28;20032;-75
2021/08/17 01:53:19;;;;;;;2.13;1.38;;;;;;;;;;5055283;28;20086;-75
2021/08/17 01:55:45;;;;;;;1.73;1.15;;;;;;;;;;5073234;28;20033;-75
2021/08/17 01:58:11;;;;;;;1.92;1.05;;;;;;;;;;5073142;28;20024;-75
2021/08/17 02:00:37;;;;;;;1.42;1.10;;;;;;;;;;5072800;28;20059;-75
2021/08/17 02:03:03;;;;;;;1.10;0.95;;;;;;;;;;5073161;28;20025;-74
2021/08/17 02:05:29;;;;;;;1.70;1.20;;;;;;;;;;5073169;28;20480;-75
2021/08/17 02:07:56;;;;;;;1.52;1.00;;;;;;;;;;5073256;28;20103;-75
2021/08/17 02:10:22;;;;;;;1.45;1.00;;;;;;;;;;5072746;28;20043;-75
2021/08/17 02:12:48;;;;;;;1.23;0.90;;;;;;;;;;5073086;28;20418;-75
2021/08/17 02:15:15;;;;;;;1.98;1.05;;;;;;;;;;5072728;28;20024;-75
2021/08/17 02:17:41;;;;;;;1.75;1.10;;;;;;;;;;5054829;28;20031;-75
2021/08/17 02:20:07;;;;;;;1.33;0.90;;;;;;;;;;5072910;28;20017;-75
2021/08/17 02:22:33;;;;;;;1.73;1.00;;;;;;;;;;5072910;28;20502;-75
2021/08/17 02:24:59;;;;;;;1.17;1.00;;;;;;;;;;5072158;28;20495;-75
2021/08/17 02:27:25;;;;;;;1.25;1.05;;;;;;;;;;5072315;28;20025;-76
2021/08/17 02:29:51;;;;;;;1.05;0.80;;;;;;;;;;5072927;28;20038;-75
2021/08/17 02:32:17;;;;;;;1.83;1.10;;;;;;;;;;5071802;28;20021;-75
2021/08/17 02:34:43;;;;;;;2.00;1.00;;;;;;;;;;5072626;28;20025;-75
2021/08/17 02:37:09;;;;;;;2.42;1.23;;;;;;;;;;5072297;28;20052;-75
2021/08/17 02:39:35;;;;;;;1.50;1.10;;;;;;;;;;5072616;28;20025;-75
2021/08/17 02:42:01;;;;;;;2.45;1.00;;;;;;;;;;5071710;28;20115;-75
2021/08/17 02:44:27;;;;;;;1.70;1.00;;;;;;;;;;5072733;28;20020;-75
2021/08/17 02:46:54;;;;;;;1.73;1.23;;;;;;;;;;5072021;28;20025;-75
2021/08/17 02:49:20;;;;;;;1.85;1.02;;;;;;;;;;5072455;28;20055;-74
2021/08/17 02:51:46;;;;;;;2.03;1.10;;;;;;;;;;5071669;28;20047;-75
2021/08/17 02:54:12;;;;;;;1.35;1.00;;;;;;;;;;5072390;28;20078;-75
2021/08/17 02:56:38;;;;;;;2.10;1.45;;;;;;;;;;5072167;28;20023;-75
2021/08/17 02:59:04;;;;;;;1.73;1.05;;;;;;;;;;5072126;28;20020;-75
2021/08/17 03:01:30;;;;;;;1.23;0.98;;;;;;;;;;5071549;28;20017;-74
2021/08/17 03:03:56;;;;;;;1.73;1.02;;;;;;;;;;5072462;28;20059;-75
2021/08/17 03:06:22;;;;;;;2.20;1.00;;;;;;;;;;5072072;28;20029;-75
2021/08/17 03:08:48;;;;;;;1.40;1.10;;;;;;;;;;5072269;28;20028;-75
2021/08/17 03:11:14;;;;;;;1.70;1.20;;;;;;;;;;5071701;28;20028;-75
2021/08/17 03:13:40;;;;;;;2.17;1.15;;;;;;;;;;5072024;28;20036;-75
2021/08/17 03:16:06;;;;;;;1.83;1.10;;;;;;;;;;5072337;28;20052;-75
2021/08/17 03:18:32;;;;;;;1.35;1.10;;;;;;;;;;5054003;28;20458;-75
2021/08/17 03:20:58;;;;;;;1.20;0.98;;;;;;;;;;5071684;28;20103;-75
2021/08/17 03:23:27;;;;;;;2.17;1.33;;;;;;;;;;5054024;28;20031;-75
2021/08/17 03:25:54;;;;;;;1.33;0.95;;;;;;;;;;5072521;28;20028;-74
2021/08/17 03:28:20;;;;;;;1.95;1.20;;;;;;;;;;5071713;28;20395;-75
2021/08/17 03:30:47;;;;;;;3.83;1.38;;;;;;;;;;5072238;28;20025;-74
2021/08/17 03:33:13;;;;;;;1.23;0.98;;;;;;;;;;5071965;28;20526;-74
2021/08/17 03:35:39;;;;;;;1.58;1.10;;;;;;;;;;5072354;28;20507;-75
2021/08/17 03:38:05;;;;;;;1.58;1.00;;;;;;;;;;5056568;28;20025;-75
2021/08/17 03:40:31;;;;;;;1.27;0.90;;;;;;;;;;5076170;28;20500;-75
2021/08/17 03:42:57;;;;;;;1.73;1.10;;;;;;;;;;5075552;28;20089;-74
2021/08/17 03:45:23;;;;;;;1.63;1.13;;;;;;;;;;5058195;28;20021;-75
2021/08/17 03:47:50;;;;;;;1.58;1.17;;;;;;;;;;5075139;28;20044;-75
2021/08/17 03:50:17;;;;;;;1.80;1.00;;;;;;;;;;5075986;28;20491;-75
2021/08/17 03:52:44;;;;;;;1.40;1.10;;;;;;;;;;5075241;28;20450;-75
2021/08/17 03:55:10;;;;;;;1.20;1.00;;;;;;;;;;5075699;28;20480;-75
2021/08/17 03:57:36;;;;;;;1.83;1.05;;;;;;;;;;5075323;28;20024;-75
2021/08/17 04:00:07;;;;;;;1.88;1.10;;;;;;;;;;5075773;28;20036;-75
2021/08/17 04:02:33;;;;;;;2.60;1.38;;;;;;;;;;5075221;28;20039;-75
2021/08/17 04:04:59;;;;;;;1.63;1.05;;;;;;;;;;5075391;28;20109;-75
2021/08/17 04:07:25;;;;;;;2.00;0.93;;;;;;;;;;5075028;28;20029;-75
2021/08/17 04:09:51;;;;;;;1.42;0.98;;;;;;;;;;5072500;28;20025;-75
2021/08/17 04:12:17;;;;;;;1.77;1.13;;;;;;;;;;5074161;28;20056;-75
2021/08/17 04:14:43;;;;;;;2.45;1.40;;;;;;;;;;5074837;28;20012;-75
2021/08/17 04:17:09;;;;;;;2.00;1.23;;;;;;;;;;5075006;28;20025;-75
2021/08/17 04:19:38;;;;;;;2.22;1.20;;;;;;;;;;5075286;28;20472;-75
2021/08/17 04:22:05;;;;;;;1.48;1.17;;;;;;;;;;5074577;28;20021;-75
2021/08/17 04:24:31;;;;;;;2.67;1.20;;;;;;;;;;5075157;28;20491;-75
2021/08/17 04:26:58;;;;;;;1.23;1.00;;;;;;;;;;5074606;28;20027;-75
2021/08/17 04:29:24;;;;;;;2.08;1.27;;;;;;;;;;5074541;28;20021;-75
2021/08/17 04:31:50;;;;;;;1.92;1.20;;;;;;;;;;5074329;28;20024;-75
2021/08/17 04:34:16;;;;;;;2.30;1.30;;;;;;;;;;5074488;28;20027;-75
2021/08/17 04:36:42;;;;;;;2.33;1.33;;;;;;;;;;5074781;28;20059;-75
2021/08/17 04:39:08;;;;;;;1.77;1.42;;;;;;;;;;5074780;28;20021;-75
2021/08/17 04:41:34;;;;;;;1.85;1.35;;;;;;;;;;5074389;28;20024;-75
2021/08/17 04:44:00;;;;;;;4.50;1.40;;;;;;;;;;5074389;28;20027;-75
2021/08/17 04:46:26;;;;;;;1.98;1.20;;;;;;;;;;5074437;28;20099;-75
2021/08/17 04:48:52;;;;;;;3.25;1.20;;;;;;;;;;5073591;28;20044;-75
2021/08/17 04:51:19;;;;;;;1.65;1.25;;;;;;;;;;5074089;28;20082;-75
2021/08/17 04:53:45;;;;;;;1.60;1.20;;;;;;;;;;5074321;28;20485;-75
2021/08/17 04:56:13;;;;;;;3.55;1.27;;;;;;;;;;5074635;28;20025;-75
2021/08/17 04:58:39;;;;;;;1.77;1.05;;;;;;;;;;5074448;28;20029;-75
2021/08/17 05:01:05;;;;;;;2.15;1.17;;;;;;;;;;5073639;28;20025;-75
2021/08/17 05:03:31;;;;;;;1.88;1.27;;;;;;;;;;5074431;28;20051;-74
2021/08/17 05:05:57;;;;;;;1.92;1.30;;;;;;;;;;5074148;28;20024;-75
2021/08/17 05:08:23;;;;;;;1.73;1.15;;;;;;;;;;5073820;28;20025;-75
2021/08/17 05:10:50;;;;;;;1.40;1.13;;;;;;;;;;5074145;28;20024;-74
2021/08/17 05:13:16;;;;;;;2.08;1.17;;;;;;;;;;5073740;28;20036;-75
2021/08/17 05:15:42;;;;;;;1.42;1.15;;;;;;;;;;5074128;28;20131;-75
2021/08/17 05:18:08;;;;;;;2.58;1.30;;;;;;;;;;5073695;28;20016;-75
2021/08/17 05:20:34;;;;;;;1.90;1.40;;;;;;;;;;5074005;28;20050;-75
2021/08/17 05:23:00;;;;;;;2.28;1.20;;;;;;;;;;5073989;28;20463;-75
2021/08/17 05:25:26;;;;;;;2.08;1.13;;;;;;;;;;5073526;28;20450;-75
2021/08/17 05:27:53;;;;;;;2.08;1.30;;;;;;;;;;5055644;28;20046;-75
2021/08/17 05:30:20;;;;;;;1.85;1.25;;;;;;;;;;5073780;28;20051;-75
2021/08/17 05:32:46;;;;;;;3.05;1.60;;;;;;;;;;5055500;28;20505;-74
2021/08/17 05:35:12;;;;;;;2.63;1.20;;;;;;;;;;5073474;28;20032;-75
2021/08/17 05:37:38;;;;;;;2.78;1.60;;;;;;;;;;5073328;28;20438;-75
2021/08/17 05:40:05;;;;;;;1.95;1.25;;;;;;;;;;5073645;28;20088;-75
2021/08/17 05:42:31;;;;;;;2.78;1.38;;;;;;;;;;5073217;28;20103;-75
2021/08/17 05:44:57;;;;;;;2.38;1.20;;;;;;;;;;5073199;28;20483;-75
2021/08/17 05:47:23;;;;;;;2.58;1.50;;;;;;;;;;5073138;28;20739;-75
2021/08/17 05:49:49;;;;;;;1.55;1.20;;;;;;;;;;5055270;28;20102;-75
2021/08/17 05:52:16;;;;;;;1.63;1.30;;;;;;;;;;5072554;28;20024;-75
2021/08/17 05:54:43;;;;;;;1.55;1.10;;;;;;;;;;5073365;28;20051;-75
2021/08/17 05:57:09;;;;;;;2.30;1.35;;;;;;;;;;5073244;28;20486;-75
2021/08/17 05:59:36;;;;;;;1.58;1.42;;;;;;;;;;5072079;28;20029;-75
2021/08/17 06:02:03;;;;;;;2.08;1.50;;;;;;;;;;5072719;28;20138;-75
2021/08/17 06:04:29;;;;;;;2.80;1.40;;;;;;;;;;5072952;28;20103;-75
2021/08/17 06:06:55;;;;;;;3.55;1.60;;;;;;;;;;5073041;28;20020;-75
2021/08/17 06:09:21;;;;;;;2.17;1.23;;;;;;;;;;5072936;28;20528;-75
2021/08/17 06:11:48;;;;;;;2.78;1.15;;;;;;;;;;5070745;28;20024;-75
2021/08/17 06:14:15;;;;;;;3.30;1.42;;;;;;;;;;5072667;28;20032;-75
2021/08/17 06:16:41;;;;;;;2.20;1.38;;;;;;;;;;5073315;28;20455;-75
2021/08/17 06:19:08;;;;;;;4.18;1.73;;;;;;;;;;5072699;28;20020;-75
2021/08/17 06:21:35;;;;;;;4.45;1.60;;;;;;;;;;5072143;28;20129;-75
2021/08/17 06:24:01;;;;;;;4.75;1.80;;;;;;;;;;5072395;28;20391;-75
2021/08/17 06:26:27;;;;;;;3.35;1.65;;;;;;;;;;5073249;28;20028;-75
2021/08/17 06:28:53;;;;;;;4.90;2.40;;;;;;;;;;5072560;28;20493;-75
2021/08/17 06:31:23;;;;;;;5.43;1.60;;;;;;;;;;5071556;28;20028;-75
2021/08/17 06:33:57;;;;;;;3.78;1.90;;;;;;;;;;5072352;28;20024;-75
2021/08/17 06:36:24;;;;;;;3.70;1.80;;;;;;;;;;5054345;28;20070;-75
2021/08/17 06:38:51;;;;;;;5.50;2.22;;;;;;;;;;5072543;28;20372;-75
2021/08/17 06:41:17;;;;;;;2.53;1.65;;;;;;;;;;5071742;28;20024;-75
2021/08/17 06:43:44;;;;;;;2.80;1.77;;;;;;;;;;5072077;28;20038;-75
2021/08/17 06:46:10;;;;;;;5.82;2.13;;;;;;;;;;5072298;28;20078;-75
2021/08/17 06:48:36;;;;;;;3.42;1.90;;;;;;;;;;5071972;28;20048;-75
2021/08/17 06:51:03;;;;;;;4.07;1.92;;;;;;;;;;5053637;28;20082;-75
2021/08/17 06:53:29;;;;;;;4.47;2.20;;;;;;;;;;5071903;28;20462;-75
2021/08/17 06:55:56;;;;;;;4.85;2.05;;;;;;;;;;5054177;28;20025;-75
2021/08/17 06:58:22;;;;;;;2.67;1.75;;;;;;;;;;5070683;28;20016;-75
2021/08/17 07:00:48;;;;;;;3.58;1.80;;;;;;;;;;5071807;28;20080;-75
2021/08/17 07:03:15;;;;;;;4.80;1.95;;;;;;;;;;5072183;28;20155;-75
2021/08/17 07:05:43;;;;;;;4.93;1.90;;;;;;;;;;5072181;28;20028;-75
2021/08/17 07:08:10;;;;;;;5.18;1.80;;;;;;;;;;5072153;28;20025;-75
2021/08/17 07:10:37;;;;;;;4.53;2.05;;;;;;;;;;5054446;28;20115;-75
2021/08/17 07:13:03;;;;;;;3.33;1.95;;;;;;;;;;5058109;28;20042;-75
2021/08/17 07:15:29;;;;;;;6.72;2.47;;;;;;;;;;5076444;28;20475;-75
2021/08/17 07:17:55;;;;;;;4.15;2.03;;;;;;;;;;5076497;28;20450;-75
2021/08/17 07:20:22;;;;;;;7.15;2.10;;;;;;;;;;5075417;28;20024;-75
2021/08/17 07:22:48;;;;;;;7.18;2.17;;;;;;;;;;5077197;28;20507;-75
2021/08/17 07:25:16;;;;;;;5.18;2.20;;;;;;;;;;5074546;28;20032;-74
2021/08/17 07:27:43;;;;;;;3.35;1.90;;;;;;;;;;5076587;28;20028;-74
2021/08/17 07:30:13;;;;;;;5.68;2.10;;;;;;;;;;5058411;28;20067;-75
2021/08/17 07:32:40;;;;;;;4.78;2.33;;;;;;;;;;5058306;28;20487;-75
2021/08/17 07:35:10;;;;;;;5.75;1.88;;;;;;;;;;5073440;28;20399;-74
2021/08/17 07:37:36;;;;;;;4.22;2.28;;;;;;;;;;5052350;28;20056;-74
2021/08/17 07:40:03;;;;;;;4.93;2.17;;;;;;;;;;5073807;28;20395;-75
2021/08/17 07:42:29;;;;;;;4.50;2.08;;;;;;;;;;5074077;28;20115;-75
2021/08/17 07:44:55;;;;;;;5.57;2.28;;;;;;;;;;5062496;28;20021;-74
2021/08/17 07:47:21;;;;;;;4.13;1.75;;;;;;;;;;5022202;28;20049;-75
2021/08/17 07:49:48;;;;;;;5.35;2.45;;;;;;;;;;5033977;28;20128;-75
2021/08/17 07:52:14;;;;;;;6.15;1.80;;;;;;;;;;5033344;28;20478;-74
2021/08/17 07:54:40;;;;;;;5.07;1.98;;;;;;;;;;5034427;28;20052;-74
2021/08/17 07:57:06;;;;;;;3.92;1.75;;;;;;;;;;5030564;28;20025;-75
2021/08/17 07:59:32;;;;;;;4.93;1.77;;;;;;;;;;5029139;28;20083;-74
2021/08/17 08:01:58;;;;;;;3.92;1.92;;;;;;;;;;5030937;28;20017;-74
2021/08/17 08:04:24;;;;;;;6.63;2.22;;;;;;;;;;5032764;28;20021;-75
2021/08/17 08:06:50;;;;;;;4.55;1.98;;;;;;;;;;5032392;28;20032;-75
2021/08/17 08:09:16;;;;;;;8.35;2.17;;;;;;;;;;5032557;28;20076;-75
2021/08/17 08:11:42;;;;;;;4.68;2.13;;;;;;;;;;5033082;28;20037;-74
2021/08/17 08:14:08;;;;;;;6.32;1.90;;;;;;;;;;5033841;28;20534;-74
2021/08/17 08:16:34;;;;;;;4.57;1.90;;;;;;;;;;5032412;28;20014;-74
2021/08/17 08:19:01;;;;;;;5.13;2.03;;;;;;;;;;5033697;28;20029;-74
2021/08/17 08:21:27;;;;;;;4.13;1.70;;;;;;;;;;5032246;28;20025;-75
2021/08/17 08:23:53;;;;;;;7.85;2.13;;;;;;;;;;5032227;28;20033;-75
2021/08/17 08:26:19;;;;;;;3.83;2.10;;;;;;;;;;5029135;28;20025;-74
2021/08/17 08:28:46;;;;;;;6.70;1.90;;;;;;;;;;5030094;28;20032;-74
2021/08/17 08:31:12;;;;;;;3.72;1.80;;;;;;;;;;5030708;28;20029;-74
2021/08/17 08:33:38;;;;;;;6.22;2.30;;;;;;;;;;5030754;28;20523;-74
2021/08/17 08:36:04;;;;;;;4.20;2.17;;;;;;;;;;5031460;28;20604;-74
2021/08/17 08:38:30;;;;;;;5.72;1.80;;;;;;;;;;5032019;28;20021;-74
2021/08/17 08:40:56;;;;;;;3.47;1.98;;;;;;;;;;5030470;28;20139;-74
2021/08/17 08:43:24;;;;;;;3.47;1.80;;;;;;;;;;5033147;28;20037;-74
2021/08/17 08:45:50;;;;;;;3.85;2.35;;;;;;;;;;5030505;28;20025;-74
2021/08/17 08:48:19;;;;;;;4.65;2.15;;;;;;;;;;5029236;28;20057;-74
2021/08/17 08:50:45;;;;;;;4.93;2.38;;;;;;;;;;5026924;28;20108;-73
2021/08/17 08:53:11;;;;;;;3.20;1.85;;;;;;;;;;5033181;28;20358;-74
2021/08/17 08:55:38;;;;;;;6.22;2.40;;;;;;;;;;5031369;28;20109;-74
2021/08/17 08:58:04;;;;;;;5.78;1.95;;;;;;;;;;5031489;28;20029;-74
2021/08/17 09:00:30;;;;;;;5.05;2.10;;;;;;;;;;5032559;28;20443;-74
2021/08/17 09:02:56;;;;;;;7.25;1.75;;;;;;;;;;5031626;28;20467;-74
2021/08/17 09:05:22;;;;;;;3.63;1.95;;;;;;;;;;5032865;28;20025;-74
2021/08/17 09:07:49;;;;;;;2.58;1.70;;;;;;;;;;5030768;28;20025;-74
2021/08/17 09:10:19;;;;;;;3.85;1.70;;;;;;;;;;5027486;28;20057;-74
2021/08/17 09:12:45;;;;;;;2.65;1.65;;;;;;;;;;5032476;28;20052;-74
2021/08/17 09:15:16;;;;;;;2.65;1.60;;;;;;;;;;5032688;28;20021;-74
2021/08/17 09:17:43;;;;;;;3.40;1.80;;;;;;;;;;5030663;28;20053;-75
2021/08/17 09:20:10;;;;;;;4.70;1.98;;;;;;;;;;5032316;28;20025;-74
2021/08/17 09:22:37;;;;;;;3.03;1.92;;;;;;;;;;5030470;28;20033;-74
2021/08/17 09:25:04;;;;;;;3.22;1.67;;;;;;;;;;5032805;28;20025;-74
2021/08/17 09:27:32;;;;;;;3.67;1.75;;;;;;;;;;5030279;28;20048;-74
2021/08/17 09:30:09;;;;;;;3.20;1.60;;;;;;;;;;5031015;28;20463;-74
2021/08/17 09:32:48;;;;;;;3.58;1.98;;;;;;;;;;5030360;28;20033;-74
2021/08/17 09:35:17;;;;;;;3.22;1.75;;;;;;;;;;5031558;28;20035;-75
2021/08/17 09:37:43;;;;;;;3.83;1.88;;;;;;;;;;5028876;28;20104;-74
2021/08/17 09:40:09;;;;;;;2.38;1.75;;;;;;;;;;5032006;28;20034;-74
2021/08/17 09:42:35;;;;;;;4.55;1.80;;;;;;;;;;5032051;28;20025;-74
2021/08/17 09:45:10;;;;;;;4.65;1.77;;;;;;;;;;5031024;28;20064;-74
2021/08/17 09:47:38;;;;;;;3.97;1.70;;;;;;;;;;5028986;28;20042;-73
2021/08/17 09:50:17;;;;;;;3.15;1.90;;;;;;;;;;5031619;28;20033;-73
2021/08/17 09:52:44;;;;;;;2.88;1.80;;;;;;;;;;5030593;28;20030;-74
2021/08/17 09:55:14;;;;;;;2.65;1.48;;;;;;;;;;5031965;28;20491;-74
2021/08/17 09:57:40;;;;;;;4.15;1.60;;;;;;;;;;5030000;28;20029;-74
2021/08/17 10:00:09;;;;;;;2.47;1.40;;;;;;;;;;5030992;28;20408;-74
2021/08/17 10:02:35;;;;;;;4.30;1.83;;;;;;;;;;5031558;28;20032;-74
2021/08/17 10:05:01;;;;;;;3.30;1.77;;;;;;;;;;5029546;28;20492;-74
2021/08/17 10:07:28;;;;;;;3.55;1.80;;;;;;;;;;5029323;28;20167;-74
2021/08/17 10:09:54;;;;;;;4.40;1.95;;;;;;;;;;5031373;28;20037;-74
2021/08/17 10:12:20;;;;;;;2.30;1.77;;;;;;;;;;5029840;28;20025;-74
2021/08/17 10:14:46;;;;;;;2.92;1.45;;;;;;;;;;5027988;28;20044;-74
2021/08/17 10:17:12;;;;;;;2.78;1.40;;;;;;;;;;5029940;28;20021;-74
2021/08/17 10:19:39;;;;;;;2.70;1.60;;;;;;;;;;5031327;28;20022;-74
2021/08/17 10:22:06;;;;;;;2.50;1.52;;;;;;;;;;5031033;28;20025;-74
2021/08/17 10:24:37;;;;;;;2.30;1.70;;;;;;;;;;5030320;28;20159;-74
2021/08/17 10:27:21;;;;;;;3.20;1.65;;;;;;;;;;5029698;28;20040;-73
2021/08/17 10:29:54;;;;;;;3.63;2.00;;;;;;;;;;5030157;28;20025;-73
2021/08/17 10:32:39;;;;;;;3.15;1.35;;;;;;;;;;5029266;28;20028;-74
2021/08/17 10:35:05;;;;;;;3.13;1.40;;;;;;;;;;5031076;28;20025;-74
2021/08/17 10:37:31;;;;;;;3.15;1.48;;;;;;;;;;5032214;28;20482;-73
2021/08/17 10:39:57;;;;;;;4.03;1.70;;;;;;;;;;5032225;28;20042;-73
2021/08/17 10:42:27;;;;;;;2.30;1.80;;;;;;;;;;5030571;28;20124;-73
2021/08/17 10:44:53;;;;;;;2.78;1.83;;;;;;;;;;5032610;28;20021;-74
2021/08/17 10:47:33;;;;;;;2.88;1.38;;;;;;;;;;5030935;28;20050;-74
2021/08/17 10:49:59;;;;;;;3.22;1.70;;;;;;;;;;5031603;28;20075;-74
2021/08/17 10:52:28;;;;;;;3.05;1.73;;;;;;;;;;5032088;28;20035;-73
2021/08/17 10:55:13;;;;;;;5.25;1.67;;;;;;;;;;5031511;28;20022;-73
2021/08/17 10:57:51;;;;;;;2.25;1.52;;;;;;;;;;5031498;28;20029;-73
2021/08/17 11:00:37;;;;;;;5.03;1.83;;;;;;;;;;5031066;28;20032;-73
2021/08/17 11:03:05;;;;;;;5.30;1.90;;;;;;;;;;5032465;28;20025;-74
2021/08/17 11:05:50;;;;;;;5.13;1.92;;;;;;;;;;5032764;28;20086;-73
2021/08/17 11:08:31;;;;;;;5.47;1.83;;;;;;;;;;5031104;28;20060;-73
2021/08/17 11:11:01;;;;;;;4.13;1.63;;;;;;;;;;5031227;28;20039;-73
2021/08/17 11:13:27;;;;;;;3.67;1.83;;;;;;;;;;5032327;28;20372;-73
2021/08/17 11:16:09;;;;;;;5.82;2.10;;;;;;;;;;5032804;28;20026;-73
2021/08/17 11:18:55;;;;;;;7.20;1.75;;;;;;;;;;5032528;28;20098;-73
2021/08/17 11:21:30;;;;;;;6.93;1.95;;;;;;;;;;5029741;28;20117;-73
2021/08/17 11:24:08;;;;;;;4.70;1.70;;;;;;;;;;5031867;28;20480;-74
2021/08/17 11:26:35;;;;;;;3.13;1.73;;;;;;;;;;5031227;28;20049;-74
2021/08/17 11:29:01;;;;;;;4.47;1.70;;;;;;;;;;5032355;28;20036;-74
2021/08/17 11:31:27;;;;;;;5.82;2.15;;;;;;;;;;5030724;28;20030;-73
2021/08/17 11:34:14;;;;;;;4.13;2.17;;;;;;;;;;5031424;28;20084;-73
2021/08/17 11:36:40;;;;;;;2.72;1.60;;;;;;;;;;5032540;28;20103;-74
2021/08/17 11:39:16;;;;;;;2.47;1.58;;;;;;;;;;5032567;28;20536;-73
2021/08/17 11:41:43;;;;;;;7.18;1.88;;;;;;;;;;5028526;28;20027;-74
2021/08/17 11:44:13;;;;;;;8.20;2.03;;;;;;;;;;5027841;28;20539;-74
2021/08/17 11:46:39;;;;;;;9.52;2.50;;;;;;;;;;5024640;28;20033;-74
2021/08/17 11:49:20;;;;;;;7.07;2.08;;;;;;;;;;5031532;28;20042;-74
2021/08/17 11:51:46;;;;;;;6.47;2.22;;;;;;;;;;5030516;28;20026;-74
2021/08/17 11:54:15;;;;;;;10.60;2.10;;;;;;;;;;5029961;28;20033;-75
2021/08/17 11:56:42;;;;;;;6.38;1.75;;;;;;;;;;5031440;28;20034;-74
2021/08/17 11:59:08;;;;;;;7.60;1.90;;;;;;;;;;5034262;28;20028;-74
2021/08/17 12:01:34;;;;;;;3.08;2.00;;;;;;;;;;5034433;28;20057;-74
2021/08/17 12:04:10;;;;;;;8.13;2.25;;;;;;;;;;5027262;28;20057;-74
2021/08/17 12:06:36;;;;;;;4.55;2.03;;;;;;;;;;5016273;28;20456;-74
2021/08/17 12:09:20;;;;;;;3.60;1.83;;;;;;;;;;5030973;28;20040;-74
2021/08/17 12:11:58;;;;;;;6.03;2.03;;;;;;;;;;5035037;28;20033;-74
2021/08/17 12:14:24;;;;;;;3.65;1.73;;;;;;;;;;5034858;28;20025;-74
2021/08/17 12:16:54;;;;;;;4.20;1.80;;;;;;;;;;5035410;28;20439;-74
2021/08/17 12:19:20;;;;;;;4.78;2.47;;;;;;;;;;5034287;28;20030;-74
2021/08/17 12:21:46;;;;;;;7.78;1.98;;;;;;;;;;5033325;28;20048;-74
2021/08/17 12:24:22;;;;;;;5.88;1.88;;;;;;;;;;5032121;28;20377;-74
2021/08/17 12:27:01;;;;;;;5.72;2.08;;;;;;;;;;5035325;28;20030;-74
2021/08/17 12:29:38;;;;;;;4.55;1.92;;;;;;;;;;5033436;28;20079;-74
2021/08/17 12:32:16;;;;;;;6.97;2.00;;;;;;;;;;5033191;28;20036;-74
2021/08/17 12:34:43;;;;;;;6.20;2.00;;;;;;;;;;5034806;28;20034;-74
2021/08/17 12:37:24;;;;;;;5.30;2.22;;;;;;;;;;5033791;28;20053;-74
2021/08/17 12:39:53;;;;;;;3.22;2.15;;;;;;;;;;5034430;28;20511;-74
2021/08/17 12:42:20;;;;;;;2.92;1.75;;;;;;;;;;5034391;28;20164;-74
2021/08/17 12:44:46;;;;;;;4.80;2.00;;;;;;;;;;5033120;28;20497;-74
2021/08/17 12:47:12;;;;;;;2.78;2.00;;;;;;;;;;5034115;28;20045;-74
2021/08/17 12:49:38;;;;;;;8.13;2.55;;;;;;;;;;5034356;28;20025;-74
2021/08/17 12:52:22;;;;;;;5.85;2.03;;;;;;;;;;5034176;28;20021;-74
2021/08/17 12:54:49;;;;;;;5.45;1.95;;;;;;;;;;5030799;28;20038;-74
2021/08/17 12:57:25;;;;;;;4.10;2.05;;;;;;;;;;5030110;28;20021;-74
2021/08/17 12:59:51;;;;;;;3.33;1.67;;;;;;;;;;5033287;28;20032;-74
2021/08/17 13:02:18;;;;;;;4.07;2.10;;;;;;;;;;5033189;28;20022;-74
2021/08/17 13:04:44;;;;;;;3.22;2.05;;;;;;;;;;5034155;28;20026;-74
2021/08/17 13:07:10;;;;;;;3.63;1.95;;;;;;;;;;5033506;28;20149;-74
2021/08/17 13:09:36;;;;;;;2.53;1.70;;;;;;;;;;5032157;28;20523;-74
2021/08/17 13:12:02;;;;;;;3.92;1.88;;;;;;;;;;5031125;28;20057;-74
2021/08/17 13:14:29;;;;;;;3.58;1.83;;;;;;;;;;5032432;28;20034;-74
2021/08/17 13:16:55;;;;;;;6.40;2.00;;;;;;;;;;5033569;28;20480;-74
2021/08/17 13:19:22;;;;;;;4.45;1.80;;;;;;;;;;5034143;28;20469;-75
2021/08/17 13:21:48;;;;;;;2.70;1.58;;;;;;;;;;5033493;28;20018;-74
2021/08/17 13:24:14;;;;;;;2.70;1.63;;;;;;;;;;5033154;28;20506;-74
2021/08/17 13:26:40;;;;;;;3.00;1.83;;;;;;;;;;5032771;28;20092;-74
2021/08/17 13:29:07;;;;;;;6.57;2.20;;;;;;;;;;5031874;28;20112;-74
2021/08/17 13:31:33;;;;;;;3.53;2.03;;;;;;;;;;5029326;28;20021;-74
2021/08/17 13:33:59;;;;;;;6.15;1.92;;;;;;;;;;5033764;28;20034;-74
2021/08/17 13:36:25;;;;;;;3.08;1.98;;;;;;;;;;5028427;28;20025;-74
2021/08/17 13:38:51;;;;;;;5.10;1.80;;;;;;;;;;5026919;28;20116;-75
2021/08/17 13:41:17;;;;;;;6.90;1.98;;;;;;;;;;5032091;28;20396;-75
2021/08/17 13:43:44;;;;;;;2.90;2.00;;;;;;;;;;5031628;28;20053;-75
2021/08/17 13:46:10;;;;;;;3.78;2.00;;;;;;;;;;5031181;28;20022;-74
2021/08/17 13:48:36;;;;;;;5.40;2.20;;;;;;;;;;5030374;28;20128;-75
2021/08/17 13:51:03;;;;;;;9.50;2.47;;;;;;;;;;5029778;28;20503;-75
2021/08/17 13:53:29;;;;;;;7.30;2.67;;;;;;;;;;5030720;28;20028;-75
2021/08/17 13:55:55;;;;;;;6.13;2.40;;;;;;;;;;5031273;28;20055;-75
2021/08/17 13:58:21;;;;;;;11.73;2.17;;;;;;;;;;5032873;28;20074;-75
2021/08/17 14:00:48;;;;;;;7.65;2.00;;;;;;;;;;5028702;28;20657;-75
2021/08/17 14:03:14;;;;;;;7.05;2.22;;;;;;;;;;5032137;28;20480;-75
2021/08/17 14:05:40;;;;;;;14.93;2.65;;;;;;;;;;5030681;28;20028;-75
2021/08/17 14:08:06;;;;;;;9.02;2.15;;;;;;;;;;5032126;28;20025;-75
2021/08/17 14:10:32;;;;;;;8.02;2.47;;;;;;;;;;5032064;28;20518;-75
2021/08/17 14:12:59;;;;;;;7.18;2.13;;;;;;;;;;5031052;28;20029;-75
2021/08/17 14:15:26;;;;;;;4.57;2.22;;;;;;;;;;5031437;28;20072;-74
2021/08/17 14:17:52;;;;;;;7.63;2.65;;;;;;;;;;5031814;28;20037;-75
2021/08/17 14:20:18;;;;;;;6.80;2.13;;;;;;;;;;5030999;28;20041;-75
2021/08/17 14:22:44;;;;;;;13.98;2.50;;;;;;;;;;5029684;28;20075;-75
2021/08/17 14:25:10;;;;;;;6.72;2.50;;;;;;;;;;5032084;28;20033;-74
2021/08/17 14:27:36;;;;;;;10.77;2.83;;;;;;;;;;5031958;28;20032;-75
2021/08/17 14:30:04;;;;;;;7.80;2.30;;;;;;;;;;5031281;28;20345;-74
2021/08/17 14:32:30;;;;;;;5.50;2.13;;;;;;;;;;5031719;28;20053;-75
2021/08/17 14:34:56;;;;;;;3.97;2.10;;;;;;;;;;5031237;28;20025;-75
2021/08/17 14:37:22;;;;;;;8.85;2.40;;;;;;;;;;5030259;28;20025;-75
2021/08/17 14:39:48;;;;;;;7.00;2.20;;;;;;;;;;5030008;28;20025;-75
2021/08/17 14:42:14;;;;;;;5.38;2.25;;;;;;;;;;5030451;28;20094;-76
2021/08/17 14:44:40;;;;;;;8.10;2.20;;;;;;;;;;5028027;28;20124;-75